Indio, California
Current Conditions -  °F | °C
As of 11:52 PM on Monday 26 Jan 2015 (Local Time) from KTRM Reporting Station
Overcast Overcast  
Wind Chill: 57°   Ceiling: 2800
Heat Index: 57°   Visibility: 7mi
Dew Point: 56°   Wind: 0mph
Humidity: 96%   Direction: NA
Pressure: 30.15"   Gusts: NA
Location:  33.72°N, 116.21°W
Report Text: KTRM 270752Z AUTO 00000KT 7SM OVC028 14/13 A3015 RMK AO2 SLP208 T01390133 402060089 TSNO
Loading
Personal Weather Stations






























Interactive Weather Map New forecast layout! Learn more

10-Day Weather Forecast

Advertisements
Track Severe Weather on mobile